PWSweather.com
Personal Weather Stations
Station Observations
KMIEASTT1
Tawas Bay, East Tawas, MI 48730

Tawas BayEast Tawas, MI 48730

Lat: 44.28, Lon: -83.48

Elevation: 600

Station Type: Davis VantagePro

http://www.tawasbayweather.com

High Low Average
Temperature 37.4°F3.0°C 15.2°F-9.3°C 23.8°F-4.6°C
Dew Point 18.0°F-7.8°C 6.0°F-14.4°C 12.2°F-11.0°C
Winds 14.0 mph 22.5 kmh Calm Calm 5.0 mph W8.0 kmh W
Wind Gusts 21.0 mph33.8 kmh 1.0 mph1.6 kmh 8.0 mph12.9 kmh
Humidity 80% 38% 62%
Pressure 30.43 in1030.5 mb 30.17 in1021.7 mb -
Precipitation 0.00 in0.0 mm - -
Hour Temp Dew Point Humidity Winds Wind Gusts Pressure Precip Precip Rate Daily Precip Total
12:01 AM 18.8°F-7.3°C 8.3°F-13.2°C 63% 1.0 mph N1.6 kmh N 2.0 mph3.2 kmh 30.44 in1030.8 mb 0.00 in0.0 mm 0.00 in/hr0.0 mm/hr 0.00 in0.0 mm
12:16 AM 18.6°F-7.4°C 7.8°F-13.4°C 62% 2.0 mph N3.2 kmh N 2.0 mph3.2 kmh 30.44 in1030.8 mb 0.00 in0.0 mm 0.00 in/hr0.0 mm/hr 0.00 in0.0 mm
12:30 AM 18.5°F-7.5°C 6.9°F-13.9°C 60% 1.0 mph N1.6 kmh N 2.0 mph3.2 kmh 30.44 in1030.8 mb 0.00 in0.0 mm 0.00 in/hr0.0 mm/hr 0.00 in0.0 mm
12:45 AM 18.4°F-7.6°C 6.9°F-13.9°C 60% 1.0 mph N1.6 kmh N 3.0 mph4.8 kmh 30.43 in1030.5 mb 0.00 in0.0 mm 0.00 in/hr0.0 mm/hr 0.00 in0.0 mm
01:01 AM 18.2°F-7.7°C 6.7°F-14.1°C 60% 2.0 mph N3.2 kmh N 3.0 mph4.8 kmh 30.43 in1030.5 mb 0.00 in0.0 mm 0.00 in/hr0.0 mm/hr 0.00 in0.0 mm
01:17 AM 18.1°F-7.7°C 6.6°F-14.1°C 60% 2.0 mph N3.2 kmh N 3.0 mph4.8 kmh 30.43 in1030.5 mb 0.00 in0.0 mm 0.00 in/hr0.0 mm/hr 0.00 in0.0 mm
01:31 AM 17.9°F-7.8°C 6.7°F-14.1°C 61% 2.0 mph NNW3.2 kmh NNW 3.0 mph4.8 kmh 30.43 in1030.5 mb 0.00 in0.0 mm 0.00 in/hr0.0 mm/hr 0.00 in0.0 mm
01:45 AM 17.3°F-8.2°C 6.9°F-13.9°C 63% 1.0 mph NNW1.6 kmh NNW 3.0 mph4.8 kmh 30.43 in1030.5 mb 0.00 in0.0 mm 0.00 in/hr0.0 mm/hr 0.00 in0.0 mm
02:02 AM 17.1°F-8.3°C 6.7°F-14.1°C 63% Calm Calm 2.0 mph3.2 kmh 30.43 in1030.5 mb 0.00 in0.0 mm 0.00 in/hr0.0 mm/hr 0.00 in0.0 mm
02:16 AM 17.1°F-8.3°C 6.3°F-14.3°C 62% Calm Calm 1.0 mph1.6 kmh 30.43 in1030.5 mb 0.00 in0.0 mm 0.00 in/hr0.0 mm/hr 0.00 in0.0 mm
02:31 AM 17.2°F-8.2°C 6.8°F-14.0°C 63% Calm Calm 1.0 mph1.6 kmh 30.43 in1030.5 mb 0.00 in0.0 mm 0.00 in/hr0.0 mm/hr 0.00 in0.0 mm
02:46 AM 17.1°F-8.3°C 7.7°F-13.5°C 66% Calm Calm 1.0 mph1.6 kmh 30.43 in1030.5 mb 0.00 in0.0 mm 0.00 in/hr0.0 mm/hr 0.00 in0.0 mm
03:01 AM 16.9°F-8.4°C 6.2°F-14.3°C 62% 1.0 mph NNW1.6 kmh NNW 2.0 mph3.2 kmh 30.43 in1030.5 mb 0.00 in0.0 mm 0.00 in/hr0.0 mm/hr 0.00 in0.0 mm
03:16 AM 16.7°F-8.5°C 6.0°F-14.4°C 62% Calm Calm 2.0 mph3.2 kmh 30.43 in1030.5 mb 0.00 in0.0 mm 0.00 in/hr0.0 mm/hr 0.00 in0.0 mm
03:30 AM 16.6°F-8.6°C 6.9°F-13.9°C 65% Calm Calm 1.0 mph1.6 kmh 30.42 in1030.1 mb 0.00 in0.0 mm 0.00 in/hr0.0 mm/hr 0.00 in0.0 mm
03:46 AM 16.6°F-8.6°C 6.9°F-13.9°C 65% Calm Calm 1.0 mph1.6 kmh 30.42 in1030.1 mb 0.00 in0.0 mm 0.00 in/hr0.0 mm/hr 0.00 in0.0 mm
04:01 AM 16.6°F-8.6°C 6.6°F-14.1°C 64% Calm Calm 1.0 mph1.6 kmh 30.42 in1030.1 mb 0.00 in0.0 mm 0.00 in/hr0.0 mm/hr 0.00 in0.0 mm
04:16 AM 16.7°F-8.5°C 7.7°F-13.5°C 67% 1.0 mph NNW1.6 kmh NNW 1.0 mph1.6 kmh 30.41 in1029.8 mb 0.00 in0.0 mm 0.00 in/hr0.0 mm/hr 0.00 in0.0 mm
04:31 AM 16.6°F-8.6°C 7.2°F-13.8°C 66% Calm Calm 2.0 mph3.2 kmh 30.41 in1029.8 mb 0.00 in0.0 mm 0.00 in/hr0.0 mm/hr 0.00 in0.0 mm
04:46 AM 16.1°F-8.8°C 7.1°F-13.8°C 67% Calm Calm 2.0 mph3.2 kmh 30.41 in1029.8 mb 0.00 in0.0 mm 0.00 in/hr0.0 mm/hr 0.00 in0.0 mm
05:02 AM 15.8°F-9.0°C 7.1°F-13.8°C 68% Calm Calm 1.0 mph1.6 kmh 30.41 in1029.8 mb 0.00 in0.0 mm 0.00 in/hr0.0 mm/hr 0.00 in0.0 mm
05:16 AM 15.9°F-8.9°C 8.2°F-13.2°C 71% Calm Calm 2.0 mph3.2 kmh 30.40 in1029.5 mb 0.00 in0.0 mm 0.00 in/hr0.0 mm/hr 0.00 in0.0 mm
05:31 AM 15.6°F-9.1°C 8.8°F-12.9°C 74% 2.0 mph WNW3.2 kmh WNW 3.0 mph4.8 kmh 30.40 in1029.5 mb 0.00 in0.0 mm 0.00 in/hr0.0 mm/hr 0.00 in0.0 mm
05:45 AM 15.6°F-9.1°C 8.5°F-13.1°C 73% 3.0 mph W4.8 kmh W 3.0 mph4.8 kmh 30.39 in1029.1 mb 0.00 in0.0 mm 0.00 in/hr0.0 mm/hr 0.00 in0.0 mm
06:02 AM 15.4°F-9.2°C 8.0°F-13.3°C 72% 1.0 mph WNW1.6 kmh WNW 2.0 mph3.2 kmh 30.39 in1029.1 mb 0.00 in0.0 mm 0.00 in/hr0.0 mm/hr 0.00 in0.0 mm
06:17 AM 15.5°F-9.2°C 8.7°F-12.9°C 74% 3.0 mph WSW4.8 kmh WSW 4.0 mph6.4 kmh 30.39 in1029.1 mb 0.00 in0.0 mm 0.00 in/hr0.0 mm/hr 0.00 in0.0 mm
06:30 AM 15.4°F-9.2°C 8.6°F-13.0°C 74% 3.0 mph WSW4.8 kmh WSW 4.0 mph6.4 kmh 30.39 in1029.1 mb 0.00 in0.0 mm 0.00 in/hr0.0 mm/hr 0.00 in0.0 mm
06:46 AM 15.2°F-9.3°C 9.0°F-12.8°C 76% 1.0 mph WSW1.6 kmh WSW 4.0 mph6.4 kmh 30.39 in1029.1 mb 0.00 in0.0 mm 0.00 in/hr0.0 mm/hr 0.00 in0.0 mm
07:01 AM 15.2°F-9.3°C 9.6°F-12.4°C 78% 2.0 mph WSW3.2 kmh WSW 2.0 mph3.2 kmh 30.39 in1029.1 mb 0.00 in0.0 mm 0.00 in/hr0.0 mm/hr 0.00 in0.0 mm
07:16 AM 15.5°F-9.2°C 9.6°F-12.4°C 77% 2.0 mph W3.2 kmh W 3.0 mph4.8 kmh 30.39 in1029.1 mb 0.00 in0.0 mm 0.00 in/hr0.0 mm/hr 0.00 in0.0 mm
07:31 AM 15.9°F-8.9°C 9.7°F-12.4°C 76% 1.0 mph WSW1.6 kmh WSW 6.0 mph9.7 kmh 30.38 in1028.8 mb 0.00 in0.0 mm 0.00 in/hr0.0 mm/hr 0.00 in0.0 mm
07:46 AM 16.3°F-8.7°C 10.1°F-12.2°C 76% 2.0 mph WSW3.2 kmh WSW 5.0 mph8.0 kmh 30.37 in1028.4 mb 0.00 in0.0 mm 0.00 in/hr0.0 mm/hr 0.00 in0.0 mm
08:01 AM 16.3°F-8.7°C 10.1°F-12.2°C 76% 1.0 mph WSW1.6 kmh WSW 4.0 mph6.4 kmh 30.35 in1027.8 mb 0.00 in0.0 mm 0.00 in/hr0.0 mm/hr 0.00 in0.0 mm
08:16 AM 16.7°F-8.5°C 10.5°F-11.9°C 76% 3.0 mph WNW4.8 kmh WNW 5.0 mph8.0 kmh 30.35 in1027.8 mb 0.00 in0.0 mm 0.00 in/hr0.0 mm/hr 0.00 in0.0 mm
08:31 AM 16.7°F-8.5°C 10.8°F-11.8°C 77% 3.0 mph W4.8 kmh W 4.0 mph6.4 kmh 30.34 in1027.4 mb 0.00 in0.0 mm 0.00 in/hr0.0 mm/hr 0.00 in0.0 mm
08:46 AM 16.6°F-8.6°C 10.7°F-11.8°C 77% 3.0 mph W4.8 kmh W 6.0 mph9.7 kmh 30.34 in1027.4 mb 0.00 in0.0 mm 0.00 in/hr0.0 mm/hr 0.00 in0.0 mm
09:02 AM 16.5°F-8.6°C 10.9°F-11.7°C 78% 3.0 mph W4.8 kmh W 7.0 mph11.3 kmh 30.34 in1027.4 mb 0.00 in0.0 mm 0.00 in/hr0.0 mm/hr 0.00 in0.0 mm
09:16 AM 16.6°F-8.6°C 11.0°F-11.7°C 78% 5.0 mph WSW8.0 kmh WSW 7.0 mph11.3 kmh 30.35 in1027.8 mb 0.00 in0.0 mm 0.00 in/hr0.0 mm/hr 0.00 in0.0 mm
09:31 AM 16.6°F-8.6°C 11.2°F-11.6°C 79% 4.0 mph WSW6.4 kmh WSW 5.0 mph8.0 kmh 30.35 in1027.8 mb 0.00 in0.0 mm 0.00 in/hr0.0 mm/hr 0.00 in0.0 mm
09:46 AM 16.9°F-8.4°C 11.5°F-11.4°C 79% 4.0 mph WSW6.4 kmh WSW 6.0 mph9.7 kmh 30.36 in1028.1 mb 0.00 in0.0 mm 0.00 in/hr0.0 mm/hr 0.00 in0.0 mm
10:02 AM 17.2°F-8.2°C 12.1°F-11.1°C 80% 5.0 mph WSW8.0 kmh WSW 6.0 mph9.7 kmh 30.36 in1028.1 mb 0.00 in0.0 mm 0.00 in/hr0.0 mm/hr 0.00 in0.0 mm
10:15 AM 17.9°F-7.8°C 12.8°F-10.7°C 80% 5.0 mph WSW8.0 kmh WSW 7.0 mph11.3 kmh 30.36 in1028.1 mb 0.00 in0.0 mm 0.00 in/hr0.0 mm/hr 0.00 in0.0 mm
10:31 AM 18.7°F-7.4°C 13.3°F-10.4°C 79% 5.0 mph WSW8.0 kmh WSW 7.0 mph11.3 kmh 30.35 in1027.8 mb 0.00 in0.0 mm 0.00 in/hr0.0 mm/hr 0.00 in0.0 mm
10:45 AM 19.8°F-6.8°C 14.4°F-9.8°C 79% 7.0 mph WSW11.3 kmh WSW 9.0 mph14.5 kmh 30.35 in1027.8 mb 0.00 in0.0 mm 0.00 in/hr0.0 mm/hr 0.00 in0.0 mm
11:02 AM 20.6°F-6.3°C 14.8°F-9.6°C 78% 7.0 mph WSW11.3 kmh WSW 11.0 mph17.7 kmh 30.34 in1027.4 mb 0.00 in0.0 mm 0.00 in/hr0.0 mm/hr 0.00 in0.0 mm
11:16 AM 21.2°F-6.0°C 15.7°F-9.1°C 79% 7.0 mph SW11.3 kmh SW 9.0 mph14.5 kmh 30.34 in1027.4 mb 0.00 in0.0 mm 0.00 in/hr0.0 mm/hr 0.00 in0.0 mm
11:31 AM 22.1°F-5.5°C 16.0°F-8.9°C 77% 8.0 mph WSW12.9 kmh WSW 10.0 mph16.1 kmh 30.34 in1027.4 mb 0.00 in0.0 mm 0.00 in/hr0.0 mm/hr 0.00 in0.0 mm
11:46 AM 23.4°F-4.8°C 16.7°F-8.5°C 75% 6.0 mph SW9.7 kmh SW 10.0 mph16.1 kmh 30.33 in1027.1 mb 0.00 in0.0 mm 0.00 in/hr0.0 mm/hr 0.00 in0.0 mm
12:02 PM 25.2°F-3.8°C 17.1°F-8.3°C 71% 14.0 mph WSW22.5 kmh WSW 14.0 mph22.5 kmh 30.32 in1026.8 mb 0.00 in0.0 mm 0.00 in/hr0.0 mm/hr 0.00 in0.0 mm
12:17 PM 26.8°F-2.9°C 18.0°F-7.8°C 69% 8.0 mph WSW12.9 kmh WSW 13.0 mph20.9 kmh 30.32 in1026.8 mb 0.00 in0.0 mm 0.00 in/hr0.0 mm/hr 0.00 in0.0 mm
12:30 PM 27.1°F-2.7°C 17.3°F-8.2°C 66% 9.0 mph W14.5 kmh W 12.0 mph19.3 kmh 30.31 in1026.4 mb 0.00 in0.0 mm 0.00 in/hr0.0 mm/hr 0.00 in0.0 mm
12:46 PM 28.0°F-2.2°C 17.1°F-8.3°C 63% 9.0 mph WSW14.5 kmh WSW 14.0 mph22.5 kmh 30.31 in1026.4 mb 0.00 in0.0 mm 0.00 in/hr0.0 mm/hr 0.00 in0.0 mm
01:02 PM 29.0°F-1.7°C 17.3°F-8.2°C 61% 11.0 mph WSW17.7 kmh WSW 11.0 mph17.7 kmh 30.30 in1026.1 mb 0.00 in0.0 mm 0.00 in/hr0.0 mm/hr 0.00 in0.0 mm
01:16 PM 29.9°F-1.2°C 16.5°F-8.6°C 57% 10.0 mph WSW16.1 kmh WSW 13.0 mph20.9 kmh 30.29 in1025.7 mb 0.00 in0.0 mm 0.00 in/hr0.0 mm/hr 0.00 in0.0 mm
01:31 PM 30.7°F-0.7°C 17.3°F-8.2°C 57% 9.0 mph WSW14.5 kmh WSW 11.0 mph17.7 kmh 30.28 in1025.4 mb 0.00 in0.0 mm 0.00 in/hr0.0 mm/hr 0.00 in0.0 mm
01:46 PM 31.4°F-0.3°C 17.1°F-8.3°C 55% 10.0 mph W16.1 kmh W 17.0 mph27.4 kmh 30.27 in1025.1 mb 0.00 in0.0 mm 0.00 in/hr0.0 mm/hr 0.00 in0.0 mm
02:02 PM 32.6°F0.3°C 15.6°F-9.1°C 49% 6.0 mph NW9.7 kmh NW 14.0 mph22.5 kmh 30.26 in1024.7 mb 0.00 in0.0 mm 0.00 in/hr0.0 mm/hr 0.00 in0.0 mm
02:15 PM 32.0°F0.0°C 17.3°F-8.2°C 54% 8.0 mph WSW12.9 kmh WSW 13.0 mph20.9 kmh 30.26 in1024.7 mb 0.00 in0.0 mm 0.00 in/hr0.0 mm/hr 0.00 in0.0 mm
02:31 PM 32.3°F0.2°C 16.2°F-8.8°C 51% 13.0 mph WSW20.9 kmh WSW 17.0 mph27.4 kmh 30.24 in1024.0 mb 0.00 in0.0 mm 0.00 in/hr0.0 mm/hr 0.00 in0.0 mm
02:46 PM 33.4°F0.8°C 17.7°F-7.9°C 52% 14.0 mph WSW22.5 kmh WSW 14.0 mph22.5 kmh 30.24 in1024.0 mb 0.00 in0.0 mm 0.00 in/hr0.0 mm/hr 0.00 in0.0 mm
03:01 PM 34.2°F1.2°C 15.6°F-9.1°C 46% 7.0 mph WSW11.3 kmh WSW 16.0 mph25.7 kmh 30.23 in1023.7 mb 0.00 in0.0 mm 0.00 in/hr0.0 mm/hr 0.00 in0.0 mm
03:16 PM 34.2°F1.2°C 15.6°F-9.1°C 46% 13.0 mph WSW20.9 kmh WSW 21.0 mph33.8 kmh 30.23 in1023.7 mb 0.00 in0.0 mm 0.00 in/hr0.0 mm/hr 0.00 in0.0 mm
03:31 PM 34.4°F1.3°C 17.7°F-7.9°C 50% 10.0 mph WSW16.1 kmh WSW 14.0 mph22.5 kmh 30.21 in1023.0 mb 0.00 in0.0 mm 0.00 in/hr0.0 mm/hr 0.00 in0.0 mm
03:45 PM 34.7°F1.5°C 16.1°F-8.8°C 46% 10.0 mph WSW16.1 kmh WSW 12.0 mph19.3 kmh 30.21 in1023.0 mb 0.00 in0.0 mm 0.00 in/hr0.0 mm/hr 0.00 in0.0 mm
04:02 PM 34.1°F1.2°C 17.9°F-7.8°C 51% 10.0 mph WSW16.1 kmh WSW 16.0 mph25.7 kmh 30.20 in1022.7 mb 0.00 in0.0 mm 0.00 in/hr0.0 mm/hr 0.00 in0.0 mm
04:16 PM 34.5°F1.4°C 17.3°F-8.2°C 49% 7.0 mph WNW11.3 kmh WNW 15.0 mph24.1 kmh 30.20 in1022.7 mb 0.00 in0.0 mm 0.00 in/hr0.0 mm/hr 0.00 in0.0 mm
04:31 PM 36.8°F2.7°C 15.3°F-9.3°C 41% 13.0 mph WSW20.9 kmh WSW 14.0 mph22.5 kmh 30.20 in1022.7 mb 0.00 in0.0 mm 0.00 in/hr0.0 mm/hr 0.00 in0.0 mm
04:46 PM 36.8°F2.7°C 14.2°F-9.9°C 39% 6.0 mph WNW9.7 kmh WNW 14.0 mph22.5 kmh 30.20 in1022.7 mb 0.00 in0.0 mm 0.00 in/hr0.0 mm/hr 0.00 in0.0 mm
05:02 PM 37.0°F2.8°C 14.4°F-9.8°C 39% 4.0 mph NW6.4 kmh NW 16.0 mph25.7 kmh 30.19 in1022.4 mb 0.00 in0.0 mm 0.00 in/hr0.0 mm/hr 0.00 in0.0 mm
05:16 PM 37.4°F3.0°C 14.1°F-9.9°C 38% 11.0 mph W17.7 kmh W 11.0 mph17.7 kmh 30.19 in1022.4 mb 0.00 in0.0 mm 0.00 in/hr0.0 mm/hr 0.00 in0.0 mm
05:31 PM 37.3°F2.9°C 14.0°F-10.0°C 38% 4.0 mph WSW6.4 kmh WSW 10.0 mph16.1 kmh 30.18 in1022.0 mb 0.00 in0.0 mm 0.00 in/hr0.0 mm/hr 0.00 in0.0 mm
05:46 PM 37.2°F2.9°C 14.0°F-10.0°C 38% 12.0 mph WSW19.3 kmh WSW 14.0 mph22.5 kmh 30.18 in1022.0 mb 0.00 in0.0 mm 0.00 in/hr0.0 mm/hr 0.00 in0.0 mm
06:01 PM 36.6°F2.6°C 14.6°F-9.7°C 40% 8.0 mph WSW12.9 kmh WSW 13.0 mph20.9 kmh 30.18 in1022.0 mb 0.00 in0.0 mm 0.00 in/hr0.0 mm/hr 0.00 in0.0 mm
06:16 PM 36.4°F2.4°C 15.0°F-9.4°C 41% 5.0 mph WSW8.0 kmh WSW 13.0 mph20.9 kmh 30.18 in1022.0 mb 0.00 in0.0 mm 0.00 in/hr0.0 mm/hr 0.00 in0.0 mm
06:31 PM 35.5°F1.9°C 15.8°F-9.0°C 44% 8.0 mph WSW12.9 kmh WSW 11.0 mph17.7 kmh 30.18 in1022.0 mb 0.00 in0.0 mm 0.00 in/hr0.0 mm/hr 0.00 in0.0 mm
06:46 PM 34.5°F1.4°C 15.4°F-9.2°C 45% 7.0 mph WSW11.3 kmh WSW 8.0 mph12.9 kmh 30.18 in1022.0 mb 0.00 in0.0 mm 0.00 in/hr0.0 mm/hr 0.00 in0.0 mm
07:02 PM 33.8°F1.0°C 15.7°F-9.1°C 47% 6.0 mph WSW9.7 kmh WSW 7.0 mph11.3 kmh 30.18 in1022.0 mb 0.00 in0.0 mm 0.00 in/hr0.0 mm/hr 0.00 in0.0 mm
07:15 PM 33.2°F0.7°C 15.2°F-9.3°C 47% 5.0 mph WSW8.0 kmh WSW 9.0 mph14.5 kmh 30.17 in1021.7 mb 0.00 in0.0 mm 0.00 in/hr0.0 mm/hr 0.00 in0.0 mm
07:31 PM 33.4°F0.8°C 14.4°F-9.8°C 45% 3.0 mph WSW4.8 kmh WSW 10.0 mph16.1 kmh 30.18 in1022.0 mb 0.00 in0.0 mm 0.00 in/hr0.0 mm/hr 0.00 in0.0 mm
07:46 PM 32.4°F0.2°C 15.9°F-8.9°C 50% 3.0 mph WSW4.8 kmh WSW 6.0 mph9.7 kmh 30.17 in1021.7 mb 0.00 in0.0 mm 0.00 in/hr0.0 mm/hr 0.00 in0.0 mm
08:02 PM 30.6°F-0.8°C 17.6°F-8.0°C 58% 4.0 mph WSW6.4 kmh WSW 4.0 mph6.4 kmh 30.17 in1021.7 mb 0.00 in0.0 mm 0.00 in/hr0.0 mm/hr 0.00 in0.0 mm
08:15 PM 30.2°F-1.0°C 18.8°F-7.3°C 62% 4.0 mph WSW6.4 kmh WSW 4.0 mph6.4 kmh 30.17 in1021.7 mb 0.00 in0.0 mm 0.00 in/hr0.0 mm/hr 0.00 in0.0 mm
08:31 PM 29.9°F-1.2°C 18.5°F-7.5°C 62% 3.0 mph WSW4.8 kmh WSW 5.0 mph8.0 kmh 30.17 in1021.7 mb 0.00 in0.0 mm 0.00 in/hr0.0 mm/hr 0.00 in0.0 mm
08:45 PM 30.1°F-1.1°C 17.1°F-8.3°C 58% 4.0 mph WSW6.4 kmh WSW 6.0 mph9.7 kmh 30.17 in1021.7 mb 0.00 in0.0 mm 0.00 in/hr0.0 mm/hr 0.00 in0.0 mm
09:00 PM 29.9°F-1.2°C 16.5°F-8.6°C 57% 4.0 mph WSW6.4 kmh WSW 7.0 mph11.3 kmh 30.17 in1021.7 mb 0.00 in0.0 mm 0.00 in/hr0.0 mm/hr 0.00 in0.0 mm
09:16 PM 29.7°F-1.3°C 15.9°F-8.9°C 56% 4.0 mph WSW6.4 kmh WSW 7.0 mph11.3 kmh 30.18 in1022.0 mb 0.00 in0.0 mm 0.00 in/hr0.0 mm/hr 0.00 in0.0 mm
09:31 PM 28.8°F-1.8°C 16.7°F-8.5°C 60% 5.0 mph WSW8.0 kmh WSW 5.0 mph8.0 kmh 30.17 in1021.7 mb 0.00 in0.0 mm 0.00 in/hr0.0 mm/hr 0.00 in0.0 mm
09:45 PM 29.0°F-1.7°C 16.1°F-8.8°C 58% 5.0 mph W8.0 kmh W 6.0 mph9.7 kmh 30.17 in1021.7 mb 0.00 in0.0 mm 0.00 in/hr0.0 mm/hr 0.00 in0.0 mm
10:02 PM 30.2°F-1.0°C 14.7°F-9.6°C 52% 5.0 mph W8.0 kmh W 8.0 mph12.9 kmh 30.17 in1021.7 mb 0.00 in0.0 mm 0.00 in/hr0.0 mm/hr 0.00 in0.0 mm
10:16 PM 29.8°F-1.2°C 14.3°F-9.8°C 52% 4.0 mph WSW6.4 kmh WSW 6.0 mph9.7 kmh 30.17 in1021.7 mb 0.00 in0.0 mm 0.00 in/hr0.0 mm/hr 0.00 in0.0 mm
10:31 PM 30.1°F-1.1°C 14.2°F-9.9°C 51% 3.0 mph WSW4.8 kmh WSW 9.0 mph14.5 kmh 30.17 in1021.7 mb 0.00 in0.0 mm 0.00 in/hr0.0 mm/hr 0.00 in0.0 mm
10:46 PM 29.9°F-1.2°C 14.0°F-10.0°C 51% 8.0 mph WSW12.9 kmh WSW 10.0 mph16.1 kmh 30.17 in1021.7 mb 0.00 in0.0 mm 0.00 in/hr0.0 mm/hr 0.00 in0.0 mm
11:02 PM 29.6°F-1.3°C 14.2°F-9.9°C 52% 6.0 mph NW9.7 kmh NW 9.0 mph14.5 kmh 30.18 in1022.0 mb 0.00 in0.0 mm 0.00 in/hr0.0 mm/hr 0.00 in0.0 mm
11:16 PM 29.5°F-1.4°C 14.1°F-9.9°C 52% 4.0 mph NW6.4 kmh NW 12.0 mph19.3 kmh 30.18 in1022.0 mb 0.00 in0.0 mm 0.00 in/hr0.0 mm/hr 0.00 in0.0 mm
11:31 PM 29.2°F-1.6°C 14.6°F-9.7°C 54% 6.0 mph NNW9.7 kmh NNW 11.0 mph17.7 kmh 30.18 in1022.0 mb 0.00 in0.0 mm 0.00 in/hr0.0 mm/hr 0.00 in0.0 mm
11:46 PM 28.9°F-1.7°C 15.2°F-9.3°C 56% 4.0 mph W6.4 kmh W 11.0 mph17.7 kmh 30.18 in1022.0 mb 0.00 in0.0 mm 0.00 in/hr0.0 mm/hr 0.00 in0.0 mm